Time;durP1;ratioP1;P1;durP2;ratioP2;P2;SDS_P1;SDS_P2;PMS_P1;PMS_P2;Temp;Humidity;BMP_temperature;BMP_pressure;BME280_temperature;BME280_humidity;BME280_pressure;Samples;Min_cycle;Max_cycle;Signal;HPM_P1;HPM_P2
2020/12/24 00:01:28;;;;;;;0.70;0.40;;;17.00;68.90;;;;;;4954722;29;20078;-48
2020/12/24 00:03:54;;;;;;;1.30;0.47;;;17.00;68.80;;;;;;4954766;29;20359;-48
2020/12/24 00:06:19;;;;;;;1.23;0.50;;;17.00;68.90;;;;;;4954708;29;20020;-48
2020/12/24 00:08:45;;;;;;;1.20;0.47;;;17.00;68.90;;;;;;4954547;29;20027;-47
2020/12/24 00:11:11;;;;;;;1.77;0.75;;;17.00;68.80;;;;;;4954561;29;20114;-48
2020/12/24 00:13:37;;;;;;;2.03;0.47;;;17.00;68.80;;;;;;4954426;29;20462;-49
2020/12/24 00:16:16;;;;;;;2.50;0.50;;;17.00;68.80;;;;;;4950037;28;20055;-47
2020/12/24 00:18:49;;;;;;;1.95;0.43;;;17.00;68.80;;;;;;4972554;28;20130;-47
2020/12/24 00:21:15;;;;;;;0.60;0.45;;;16.90;68.90;;;;;;4955713;28;20393;-47
2020/12/24 00:23:40;;;;;;;2.47;0.63;;;16.90;69.50;;;;;;4973104;28;20090;-48
2020/12/24 00:26:06;;;;;;;0.88;0.40;;;16.90;69.00;;;;;;4972671;28;20404;-49
2020/12/24 00:28:32;;;;;;;0.93;0.50;;;16.90;69.10;;;;;;4972799;28;20078;-48
2020/12/24 00:30:59;;;;;;;2.15;0.63;;;16.80;69.20;;;;;;4972810;28;20021;-47
2020/12/24 00:33:24;;;;;;;1.13;0.45;;;16.80;69.20;;;;;;4972764;28;20055;-48
2020/12/24 00:35:50;;;;;;;1.55;0.52;;;16.80;69.30;;;;;;4972721;28;20046;-47
2020/12/24 00:38:15;;;;;;;1.65;0.45;;;16.70;69.30;;;;;;4972344;28;20035;-48
2020/12/24 00:40:41;;;;;;;0.63;0.30;;;16.70;69.30;;;;;;4955032;28;20027;-48
2020/12/24 00:43:07;;;;;;;1.40;0.32;;;16.70;69.40;;;;;;4972597;28;20389;-48
2020/12/24 00:45:32;;;;;;;1.58;0.50;;;16.60;69.30;;;;;;4972618;28;20421;-48
2020/12/24 00:47:58;;;;;;;1.50;0.52;;;16.60;69.40;;;;;;4972626;28;20023;-47
2020/12/24 00:50:24;;;;;;;0.77;0.40;;;16.70;69.50;;;;;;4972434;28;20102;-48
2020/12/24 00:52:49;;;;;;;2.00;0.50;;;16.60;69.40;;;;;;4955025;28;20115;-49
2020/12/24 00:55:15;;;;;;;4.55;0.60;;;16.60;69.60;;;;;;4972267;28;20068;-48
2020/12/24 00:57:40;;;;;;;0.73;0.40;;;16.60;69.60;;;;;;4972583;28;20023;-47
2020/12/24 01:00:07;;;;;;;1.45;0.60;;;16.50;69.50;;;;;;4972029;28;20023;-47
2020/12/24 01:02:34;;;;;;;1.55;0.30;;;16.50;69.50;;;;;;4972320;28;20015;-47
2020/12/24 01:05:06;;;;;;;2.17;0.45;;;16.50;69.60;;;;;;4972389;28;20551;-48
2020/12/24 01:07:32;;;;;;;0.93;0.50;;;16.40;69.40;;;;;;4972327;28;20030;-48
2020/12/24 01:09:58;;;;;;;2.38;0.60;;;16.40;69.50;;;;;;4972027;28;20467;-48
2020/12/24 01:12:23;;;;;;;0.45;0.38;;;16.40;70.20;;;;;;4972345;28;20019;-50
2020/12/24 01:14:49;;;;;;;0.77;0.40;;;16.40;69.50;;;;;;4972936;28;20031;-48
2020/12/24 01:17:21;;;;;;;1.50;0.50;;;16.40;69.50;;;;;;4694457;28;7617636;-47
2020/12/24 01:19:47;;;;;;;1.85;0.47;;;16.40;69.50;;;;;;4953490;29;20039;-47
2020/12/24 01:22:12;;;;;;;1.20;0.40;;;16.40;69.50;;;;;;4953884;29;20023;-48
2020/12/24 01:24:38;;;;;;;3.30;0.57;;;16.40;69.60;;;;;;4936534;29;20110;-48
2020/12/24 01:27:03;;;;;;;1.33;0.68;;;16.50;69.60;;;;;;4953662;29;20077;-47
2020/12/24 01:29:30;;;;;;;1.75;0.50;;;16.30;69.50;;;;;;4953563;29;20058;-47
2020/12/24 01:31:55;;;;;;;2.72;0.50;;;16.30;69.50;;;;;;4953664;29;20433;-48
2020/12/24 01:34:21;;;;;;;0.82;0.40;;;16.30;69.50;;;;;;4953615;29;20016;-48
2020/12/24 01:36:47;;;;;;;1.05;0.40;;;16.30;69.60;;;;;;4953611;28;20031;-46
2020/12/24 01:39:13;;;;;;;1.00;0.47;;;16.30;69.80;;;;;;4956738;29;20079;-47
2020/12/24 01:41:39;;;;;;;2.28;0.50;;;16.40;69.60;;;;;;4957310;29;20390;-49
2020/12/24 01:44:05;;;;;;;1.33;0.40;;;16.40;69.60;;;;;;4957146;29;20027;-47
2020/12/24 01:46:31;;;;;;;0.82;0.40;;;16.40;69.60;;;;;;4957145;29;20031;-47
2020/12/24 01:48:57;;;;;;;2.00;0.40;;;16.50;69.60;;;;;;4956963;29;20030;-47
2020/12/24 01:51:26;;;;;;;1.40;0.73;;;16.50;69.30;;;;;;4957005;29;20078;-48
2020/12/24 01:53:53;;;;;;;1.70;0.50;;;16.60;69.10;;;;;;4957085;29;20189;-47
2020/12/24 01:56:19;;;;;;;1.60;0.50;;;16.70;69.20;;;;;;4956965;29;20020;-47
2020/12/24 01:58:45;;;;;;;0.90;0.60;;;16.70;69.00;;;;;;4956858;29;20386;-48
2020/12/24 02:01:10;;;;;;;2.15;0.43;;;16.70;68.90;;;;;;4956971;29;20030;-48
2020/12/24 02:03:36;;;;;;;1.33;0.60;;;16.80;68.80;;;;;;4956408;29;20601;-48
2020/12/24 02:06:02;;;;;;;0.38;0.22;;;16.80;68.90;;;;;;4956845;29;20023;-48
2020/12/24 02:08:28;;;;;;;1.17;0.40;;;16.80;68.80;;;;;;4956799;29;20024;-47
2020/12/24 02:10:54;;;;;;;1.25;0.45;;;16.80;68.70;;;;;;4956659;29;20082;-48
2020/12/24 02:13:19;;;;;;;1.10;0.30;;;16.90;68.70;;;;;;4956573;29;20031;-48
2020/12/24 02:15:52;;;;;;;1.10;0.43;;;16.80;68.70;;;;;;4958480;28;20127;-48
2020/12/24 02:18:17;;;;;;;2.85;0.63;;;16.80;68.80;;;;;;4956409;29;20090;-48
2020/12/24 02:20:44;;;;;;;1.50;0.50;;;16.80;68.70;;;;;;4956546;29;20036;-47
2020/12/24 02:23:10;;;;;;;1.38;0.52;;;16.90;68.80;;;;;;4956364;29;20031;-48
2020/12/24 02:25:37;;;;;;;1.42;0.60;;;16.80;68.80;;;;;;4939237;29;20023;-48
2020/12/24 02:28:03;;;;;;;2.53;0.60;;;16.80;68.70;;;;;;4956402;29;20050;-47
2020/12/24 02:30:29;;;;;;;3.53;0.52;;;16.80;68.60;;;;;;4956394;29;20042;-48
2020/12/24 02:32:54;;;;;;;0.90;0.28;;;16.80;68.60;;;;;;4956250;29;20031;-48
2020/12/24 02:35:20;;;;;;;0.28;0.20;;;16.80;68.60;;;;;;4956349;29;20035;-47
2020/12/24 02:37:46;;;;;;;0.85;0.40;;;16.80;68.60;;;;;;4956213;29;20031;-50
2020/12/24 02:40:12;;;;;;;1.40;0.82;;;16.70;68.60;;;;;;4956254;29;20027;-46
2020/12/24 02:42:44;;;;;;;0.73;0.43;;;16.80;68.60;;;;;;4956156;29;20080;-47
2020/12/24 02:45:10;;;;;;;0.70;0.30;;;16.80;68.60;;;;;;4956097;29;20059;-48
2020/12/24 02:47:36;;;;;;;0.70;0.40;;;16.80;68.70;;;;;;4956155;29;20055;-48
2020/12/24 02:50:04;;;;;;;1.38;0.40;;;16.80;68.60;;;;;;4954788;28;20031;-48
2020/12/24 02:52:30;;;;;;;1.27;0.60;;;16.80;69.30;;;;;;4955733;29;20031;-47
2020/12/24 02:54:55;;;;;;;0.98;0.30;;;16.80;68.70;;;;;;4955947;29;20038;-47
2020/12/24 02:57:21;;;;;;;1.00;0.30;;;16.80;68.70;;;;;;4955876;29;20019;-48
2020/12/24 02:59:46;;;;;;;1.60;0.40;;;16.80;68.70;;;;;;4955817;29;20474;-47
2020/12/24 03:02:12;;;;;;;1.98;0.43;;;16.80;68.60;;;;;;4955715;29;20485;-47
2020/12/24 03:04:38;;;;;;;0.80;0.50;;;16.80;68.60;;;;;;4955796;29;20362;-49
2020/12/24 03:07:03;;;;;;;1.65;0.60;;;16.80;68.60;;;;;;4955775;29;20051;-48
2020/12/24 03:09:29;;;;;;;0.47;0.40;;;16.80;68.60;;;;;;4938502;29;20031;-49
2020/12/24 03:11:54;;;;;;;0.45;0.22;;;16.80;68.60;;;;;;4955601;29;20095;-48
2020/12/24 03:14:20;;;;;;;0.98;0.50;;;16.80;68.60;;;;;;4955461;29;20069;-47
2020/12/24 03:16:46;;;;;;;0.70;0.30;;;16.80;68.60;;;;;;4957678;28;20043;-48
2020/12/24 03:19:13;;;;;;;0.77;0.43;;;16.80;68.60;;;;;;4955515;29;20043;-47
2020/12/24 03:21:38;;;;;;;0.95;0.40;;;16.80;68.60;;;;;;4955412;29;20034;-47
2020/12/24 03:24:05;;;;;;;1.08;0.50;;;16.80;68.60;;;;;;4955392;29;20039;-48
2020/12/24 03:26:30;;;;;;;0.65;0.28;;;16.70;68.60;;;;;;4955362;29;20082;-47
2020/12/24 03:28:56;;;;;;;0.73;0.60;;;16.70;68.60;;;;;;4955227;29;20031;-48
2020/12/24 03:31:24;;;;;;;1.67;0.77;;;16.70;68.60;;;;;;4954950;29;20031;-47
2020/12/24 03:33:51;;;;;;;1.63;0.40;;;16.80;68.60;;;;;;4955214;29;20518;-47
2020/12/24 03:36:17;;;;;;;2.67;0.82;;;16.60;68.60;;;;;;4955156;29;20131;-46
2020/12/24 03:38:43;;;;;;;2.03;0.47;;;16.80;68.60;;;;;;4954987;29;20039;-48
2020/12/24 03:41:09;;;;;;;1.23;0.73;;;16.70;68.50;;;;;;4955013;29;20027;-47
2020/12/24 03:43:34;;;;;;;1.60;0.50;;;16.70;68.60;;;;;;4955039;29;20470;-48
2020/12/24 03:46:00;;;;;;;1.58;0.43;;;16.70;68.60;;;;;;4955031;29;20032;-46
2020/12/24 03:48:26;;;;;;;2.60;0.40;;;16.70;68.50;;;;;;4954990;29;20074;-47
2020/12/24 03:50:52;;;;;;;1.13;0.43;;;16.70;68.50;;;;;;4954703;29;20031;-48
2020/12/24 03:53:18;;;;;;;1.17;0.63;;;16.70;68.50;;;;;;4954915;29;20478;-47
2020/12/24 03:55:44;;;;;;;1.50;0.47;;;16.70;68.50;;;;;;4954869;29;20034;-49
2020/12/24 03:58:10;;;;;;;1.10;0.70;;;16.70;68.50;;;;;;4954761;29;20042;-47
2020/12/24 04:00:35;;;;;;;1.85;0.52;;;16.80;68.50;;;;;;4954167;28;20028;-49
2020/12/24 04:03:01;;;;;;;1.50;0.40;;;16.80;68.50;;;;;;4954733;29;20532;-47
2020/12/24 04:05:26;;;;;;;2.05;0.77;;;16.70;68.50;;;;;;4954772;29;20520;-47
2020/12/24 04:07:52;;;;;;;1.60;0.50;;;16.70;68.40;;;;;;4954685;29;20043;-48
2020/12/24 04:10:18;;;;;;;3.35;0.68;;;16.70;68.40;;;;;;4954704;29;20102;-48
2020/12/24 04:12:43;;;;;;;1.20;0.20;;;16.70;68.30;;;;;;4954562;29;20135;-46
2020/12/24 04:15:09;;;;;;;0.57;0.38;;;16.70;68.40;;;;;;4955052;28;20027;-47
2020/12/24 04:17:35;;;;;;;1.02;0.57;;;16.70;68.40;;;;;;4956966;28;20188;-47
2020/12/24 04:20:00;;;;;;;0.80;0.38;;;16.70;68.40;;;;;;4973660;28;20047;-50
2020/12/24 04:22:26;;;;;;;1.38;0.50;;;16.70;68.40;;;;;;4973668;28;20125;-47
2020/12/24 04:24:51;;;;;;;0.95;0.40;;;16.70;68.40;;;;;;4973684;28;20051;-48
2020/12/24 04:27:17;;;;;;;0.85;0.60;;;16.70;68.40;;;;;;4956248;28;20131;-47
2020/12/24 04:29:43;;;;;;;1.25;0.40;;;16.70;68.30;;;;;;4973639;28;20465;-47
2020/12/24 04:32:09;;;;;;;1.98;0.40;;;16.70;68.40;;;;;;4973603;28;20367;-47
2020/12/24 04:34:34;;;;;;;1.80;0.50;;;16.70;68.40;;;;;;4973640;28;20033;-47
2020/12/24 04:37:00;;;;;;;1.80;0.73;;;16.70;68.40;;;;;;4973613;28;20106;-47
2020/12/24 04:39:26;;;;;;;2.08;0.50;;;16.70;68.40;;;;;;4973387;28;20042;-47
2020/12/24 04:41:58;;;;;;;1.00;0.50;;;16.70;68.30;;;;;;4973556;28;20437;-47
2020/12/24 04:44:26;;;;;;;1.88;0.50;;;16.70;68.20;;;;;;4973576;28;20034;-49
2020/12/24 04:46:54;;;;;;;3.13;0.68;;;16.70;68.10;;;;;;4973681;28;20389;-51
2020/12/24 04:49:19;;;;;;;1.80;1.15;;;16.70;67.90;;;;;;4973452;28;20062;-52
2020/12/24 04:51:46;;;;;;;0.80;0.40;;;16.70;68.00;;;;;;4956023;28;20046;-49
2020/12/24 04:54:13;;;;;;;1.00;0.43;;;16.70;68.00;;;;;;4973390;28;20030;-50
2020/12/24 04:56:39;;;;;;;1.88;0.80;;;16.70;68.00;;;;;;4973544;28;20079;-48
2020/12/24 04:59:06;;;;;;;2.47;0.60;;;16.70;67.90;;;;;;4973167;28;20082;-47
2020/12/24 05:01:32;;;;;;;0.55;0.40;;;16.70;67.90;;;;;;4973149;28;20126;-47
2020/12/24 05:03:57;;;;;;;1.30;0.50;;;16.70;68.60;;;;;;4973057;28;20027;-49
2020/12/24 05:06:23;;;;;;;1.58;0.50;;;16.70;68.00;;;;;;4973367;28;20410;-47
2020/12/24 05:08:57;;;;;;;0.70;0.40;;;16.70;67.90;;;;;;4973100;28;20494;-46
2020/12/24 05:11:28;;;;;;;1.02;0.40;;;16.70;67.90;;;;;;4973267;28;20085;-48
2020/12/24 05:13:55;;;;;;;1.00;0.57;;;16.70;67.80;;;;;;4975951;28;20026;-48
2020/12/24 05:16:21;;;;;;;1.00;0.43;;;16.60;67.70;;;;;;4970410;28;20096;-48
2020/12/24 05:18:46;;;;;;;1.95;0.60;;;16.60;67.70;;;;;;4957821;29;20513;-47
2020/12/24 05:21:29;;;;;;;0.75;0.45;;;16.60;67.70;;;;;;4957822;29;20031;-48
2020/12/24 05:23:55;;;;;;;2.47;0.50;;;16.60;67.70;;;;;;4940419;29;20393;-48
2020/12/24 05:26:21;;;;;;;0.43;0.32;;;16.60;67.60;;;;;;4957547;29;20031;-47
2020/12/24 05:28:47;;;;;;;1.17;0.43;;;16.60;67.50;;;;;;4957528;29;20031;-47
2020/12/24 05:31:31;;;;;;;0.45;0.30;;;16.60;67.50;;;;;;4957562;29;20055;-48
2020/12/24 05:33:56;;;;;;;1.50;0.60;;;16.60;67.40;;;;;;4957696;29;20087;-47
2020/12/24 05:36:22;;;;;;;0.90;0.30;;;16.60;67.40;;;;;;4957459;29;20027;-47
2020/12/24 05:38:50;;;;;;;1.25;0.55;;;16.60;67.30;;;;;;4957408;29;20032;-47
2020/12/24 05:41:33;;;;;;;2.05;0.50;;;16.60;67.30;;;;;;4957452;29;20020;-48
2020/12/24 05:44:10;;;;;;;0.88;0.50;;;16.60;67.30;;;;;;4957299;29;20041;-49
2020/12/24 05:46:48;;;;;;;1.23;0.50;;;16.60;67.20;;;;;;4957305;29;20523;-47
2020/12/24 05:49:16;;;;;;;0.40;0.30;;;16.60;67.20;;;;;;4957245;29;20027;-49
2020/12/24 05:51:50;;;;;;;0.75;0.28;;;16.60;67.20;;;;;;4957141;29;20031;-47
2020/12/24 05:54:16;;;;;;;0.75;0.30;;;16.60;67.10;;;;;;4957218;29;20110;-49
2020/12/24 05:56:43;;;;;;;0.55;0.20;;;16.60;67.10;;;;;;4957096;29;20034;-48
2020/12/24 05:59:17;;;;;;;7.78;0.30;;;16.60;67.00;;;;;;4956946;29;20031;-47
2020/12/24 06:01:58;;;;;;;0.93;0.40;;;16.60;66.90;;;;;;4957021;29;20431;-47
2020/12/24 06:04:43;;;;;;;0.52;0.30;;;16.50;67.00;;;;;;4956793;29;20059;-46
2020/12/24 06:07:10;;;;;;;0.20;0.20;;;16.50;66.90;;;;;;4957130;29;20027;-47
2020/12/24 06:09:37;;;;;;;0.77;0.20;;;16.50;67.00;;;;;;4956842;29;20047;-46
2020/12/24 06:12:20;;;;;;;0.57;0.30;;;16.50;67.00;;;;;;4956838;29;20027;-46
2020/12/24 06:14:48;;;;;;;1.27;0.55;;;16.50;67.00;;;;;;4956796;29;20034;-46
2020/12/24 06:17:17;;;;;;;0.30;0.20;;;16.40;67.10;;;;;;4958716;28;20047;-48
2020/12/24 06:19:43;;;;;;;0.82;0.20;;;16.40;67.10;;;;;;4956704;29;20122;-46
2020/12/24 06:22:09;;;;;;;0.70;0.30;;;16.40;67.10;;;;;;4956646;29;20494;-47
2020/12/24 06:24:45;;;;;;;0.47;0.20;;;16.30;67.70;;;;;;4956221;28;20023;-47
2020/12/24 06:27:21;;;;;;;1.67;0.20;;;16.30;66.90;;;;;;4956636;29;20417;-46
2020/12/24 06:29:50;;;;;;;0.30;0.30;;;16.30;67.00;;;;;;4956519;29;20482;-47
2020/12/24 06:32:18;;;;;;;0.35;0.25;;;16.20;66.90;;;;;;4956288;29;20045;-46
2020/12/24 06:34:44;;;;;;;0.65;0.20;;;16.20;66.80;;;;;;4956463;29;20426;-47
2020/12/24 06:37:18;;;;;;;1.27;0.20;;;16.20;66.80;;;;;;4956331;29;20035;-47
2020/12/24 06:39:49;;;;;;;0.47;0.20;;;16.20;66.80;;;;;;4956410;29;20090;-47
2020/12/24 06:42:37;;;;;;;1.13;0.30;;;16.10;66.70;;;;;;4956169;29;20474;-47
2020/12/24 06:45:07;;;;;;;0.38;0.20;;;16.10;66.80;;;;;;4956285;29;20042;-48
2020/12/24 06:47:33;;;;;;;0.82;0.30;;;16.10;66.80;;;;;;4956277;29;20469;-46
2020/12/24 06:49:59;;;;;;;0.20;0.20;;;16.10;66.80;;;;;;4956179;29;20034;-46
2020/12/24 06:52:31;;;;;;;1.02;0.40;;;16.10;66.90;;;;;;4955825;29;20035;-47
2020/12/24 06:55:16;;;;;;;0.55;0.20;;;16.10;66.90;;;;;;4956061;29;20339;-47
2020/12/24 06:57:43;;;;;;;0.70;0.25;;;16.10;67.00;;;;;;4956060;29;20035;-46
2020/12/24 07:00:20;;;;;;;0.10;0.10;;;16.00;66.90;;;;;;4955942;29;20442;-46
2020/12/24 07:02:47;;;;;;;0.85;0.17;;;16.00;66.90;;;;;;4955698;29;20023;-47
2020/12/24 07:05:41;;;;;;;0.40;0.20;;;16.00;67.00;;;;;;4955968;29;20015;-47
2020/12/24 07:08:32;;;;;;;1.13;0.40;;;16.00;67.00;;;;;;4938554;29;20031;-46
2020/12/24 07:10:59;;;;;;;0.35;0.30;;;16.00;67.00;;;;;;4955819;29;20031;-46
2020/12/24 07:13:34;;;;;;;0.17;0.17;;;16.00;67.10;;;;;;4955456;29;20051;-46
2020/12/24 07:16:04;;;;;;;0.73;0.40;;;16.00;67.10;;;;;;4957567;28;20585;-47
2020/12/24 07:18:31;;;;;;;0.17;0.17;;;15.90;67.10;;;;;;4955577;29;20043;-46
2020/12/24 07:21:01;;;;;;;0.15;0.15;;;15.90;67.10;;;;;;4955528;29;20477;-46
2020/12/24 07:23:32;;;;;;;0.20;0.20;;;16.00;67.20;;;;;;4955471;29;20042;-47
2020/12/24 07:25:59;;;;;;;0.50;0.20;;;15.90;67.10;;;;;;4955729;29;20127;-47
2020/12/24 07:28:30;;;;;;;0.20;0.20;;;15.90;67.20;;;;;;4955317;29;20026;-47
2020/12/24 07:31:15;;;;;;;0.35;0.25;;;15.90;67.20;;;;;;4955655;29;20030;-47
2020/12/24 07:33:45;;;;;;;1.70;0.30;;;15.90;67.20;;;;;;4955476;29;20035;-46
2020/12/24 07:36:11;;;;;;;1.58;0.40;;;15.90;67.10;;;;;;4955075;28;20025;-47
2020/12/24 07:38:38;;;;;;;0.20;0.20;;;15.90;67.30;;;;;;4955696;29;20039;-47
2020/12/24 07:41:03;;;;;;;1.00;0.30;;;15.90;67.20;;;;;;4955658;29;20028;-47
2020/12/24 07:43:29;;;;;;;0.40;0.10;;;15.90;67.20;;;;;;4955542;29;20079;-47
2020/12/24 07:45:55;;;;;;;1.27;0.20;;;15.90;67.20;;;;;;4938430;29;20489;-45
2020/12/24 07:48:24;;;;;;;0.25;0.10;;;15.80;67.10;;;;;;4955623;29;20227;-48
2020/12/24 07:50:51;;;;;;;0.40;0.25;;;15.80;67.20;;;;;;4955557;29;20023;-46
2020/12/24 07:53:28;;;;;;;0.20;0.13;;;15.80;67.10;;;;;;4955341;29;20023;-46
2020/12/24 07:56:10;;;;;;;0.68;0.38;;;15.80;67.10;;;;;;4955478;29;20046;-46
2020/12/24 07:58:39;;;;;;;0.40;0.40;;;15.80;67.00;;;;;;4955294;29;20029;-46
2020/12/24 08:01:05;;;;;;;0.55;0.20;;;15.80;66.90;;;;;;4955275;29;20024;-45
2020/12/24 08:03:31;;;;;;;0.47;0.20;;;15.70;66.70;;;;;;4955544;29;20027;-46
2020/12/24 08:06:05;;;;;;;0.10;0.10;;;15.80;66.70;;;;;;4955382;29;20055;-46
2020/12/24 08:08:37;;;;;;;0.55;0.20;;;15.70;66.60;;;;;;4955381;29;20023;-46
2020/12/24 08:11:07;;;;;;;0.73;0.40;;;15.70;66.60;;;;;;4955115;29;20071;-46
2020/12/24 08:13:33;;;;;;;1.75;0.30;;;15.70;66.40;;;;;;4955527;29;20023;-46
2020/12/24 08:15:58;;;;;;;1.30;0.30;;;15.70;66.40;;;;;;4957201;28;20116;-46
2020/12/24 08:18:32;;;;;;;0.65;0.30;;;15.70;66.30;;;;;;4955226;29;20036;-46
2020/12/24 08:21:16;;;;;;;1.48;0.30;;;15.70;66.30;;;;;;4955325;29;20023;-45
2020/12/24 08:23:52;;;;;;;0.60;0.22;;;15.70;66.20;;;;;;4948671;29;20050;-45
2020/12/24 08:26:20;;;;;;;0.60;0.25;;;15.70;66.20;;;;;;4954859;29;20031;-45
2020/12/24 08:28:54;;;;;;;1.13;0.25;;;15.70;66.80;;;;;;4954782;29;20031;-45
2020/12/24 08:31:20;;;;;;;0.52;0.30;;;15.60;66.20;;;;;;4954682;29;20066;-47
2020/12/24 08:33:50;;;;;;;0.43;0.20;;;15.70;66.70;;;;;;4954703;29;20110;-46
2020/12/24 08:36:18;;;;;;;1.42;0.47;;;15.70;66.80;;;;;;4954918;29;20054;-46
2020/12/24 08:38:44;;;;;;;0.30;0.10;;;15.70;66.60;;;;;;4954988;29;20038;-47
2020/12/24 08:41:24;;;;;;;3.75;0.45;;;15.80;66.40;;;;;;4954581;29;20168;-47
2020/12/24 08:43:55;;;;;;;3.50;0.40;;;15.80;66.60;;;;;;4954962;29;20082;-49
2020/12/24 08:46:22;;;;;;;2.45;0.50;;;15.70;66.90;;;;;;4954722;28;20053;-48
2020/12/24 08:48:48;;;;;;;0.82;0.30;;;15.70;66.70;;;;;;4954756;29;20031;-48
2020/12/24 08:51:18;;;;;;;1.17;0.30;;;15.70;66.60;;;;;;4954662;29;20018;-48
2020/12/24 08:53:44;;;;;;;;;;;15.70;66.60;;;;;;4954841;29;20106;-48
2020/12/24 08:56:14;;;;;;;1.80;0.35;;;15.60;66.70;;;;;;4954636;29;20511;-48
2020/12/24 08:58:47;;;;;;;2.38;0.50;;;15.60;66.80;;;;;;4954712;29;20036;-48
2020/12/24 09:01:13;;;;;;;2.90;0.50;;;15.60;66.80;;;;;;4954259;29;20039;-47
2020/12/24 09:03:38;;;;;;;5.32;0.60;;;15.60;67.00;;;;;;4954485;29;20031;-48
2020/12/24 09:06:10;;;;;;;1.08;0.40;;;15.60;67.00;;;;;;4954402;29;20061;-50
2020/12/24 09:08:36;;;;;;;3.97;0.35;;;15.60;67.40;;;;;;4952981;29;20118;-49
2020/12/24 09:11:01;;;;;;;1.50;0.30;;;15.60;67.20;;;;;;4954116;29;20083;-48
2020/12/24 09:13:27;;;;;;;3.25;0.60;;;15.60;67.20;;;;;;4954040;29;20031;-50
2020/12/24 09:15:53;;;;;;;1.80;0.40;;;15.60;67.20;;;;;;4938381;28;20023;-50
2020/12/24 09:18:18;;;;;;;0.52;0.30;;;15.60;67.20;;;;;;4954077;29;20031;-50
2020/12/24 09:20:44;;;;;;;1.38;0.30;;;15.60;67.30;;;;;;4954262;29;20033;-51
2020/12/24 09:23:11;;;;;;;5.03;0.32;;;15.60;67.20;;;;;;4954125;29;20058;-51
2020/12/24 09:25:44;;;;;;;1.05;0.20;;;15.60;67.40;;;;;;4954429;29;20035;-52
2020/12/24 09:28:26;;;;;;;2.67;0.25;;;15.60;67.20;;;;;;4953970;29;20031;-49
2020/12/24 09:30:54;;;;;;;1.33;0.30;;;15.60;67.10;;;;;;4954121;29;20350;-54
2020/12/24 09:33:20;;;;;;;1.63;0.40;;;15.60;67.20;;;;;;4954204;29;20106;-52
2020/12/24 09:35:46;;;;;;;1.80;0.35;;;15.60;67.40;;;;;;4954235;29;20106;-50
2020/12/24 09:38:11;;;;;;;0.85;0.28;;;15.60;67.50;;;;;;4954032;29;20064;-50
2020/12/24 09:40:40;;;;;;;1.73;0.40;;;15.80;67.80;;;;;;4953920;29;20087;-49
2020/12/24 09:43:07;;;;;;;4.63;0.30;;;15.70;67.40;;;;;;4953976;29;20046;-51
2020/12/24 09:45:34;;;;;;;1.83;0.57;;;15.80;67.20;;;;;;4936873;29;20114;-52
2020/12/24 09:48:00;;;;;;;1.10;0.55;;;15.80;67.20;;;;;;4953997;29;20055;-49
2020/12/24 09:50:26;;;;;;;2.00;0.60;;;15.80;67.40;;;;;;4953961;29;20031;-50
2020/12/24 09:52:51;;;;;;;2.63;0.68;;;15.90;66.80;;;;;;4936796;29;20056;-50
2020/12/24 09:55:17;;;;;;;6.32;0.40;;;15.90;66.40;;;;;;4953826;29;20481;-54
2020/12/24 09:57:42;;;;;;;3.33;0.70;;;16.00;67.00;;;;;;4948646;29;20031;-53
2020/12/24 10:00:10;;;;;;;1.95;0.60;;;16.10;66.60;;;;;;4919662;29;20036;-50
2020/12/24 10:02:37;;;;;;;2.42;0.55;;;16.20;66.20;;;;;;4937707;29;20036;-54
2020/12/24 10:05:07;;;;;;;2.38;0.50;;;16.40;65.90;;;;;;4938022;29;20031;-53
2020/12/24 10:07:33;;;;;;;1.17;0.22;;;16.60;65.60;;;;;;4938438;29;20035;-50
2020/12/24 10:09:59;;;;;;;1.02;0.40;;;16.70;65.10;;;;;;4937681;29;20020;-51
2020/12/24 10:12:28;;;;;;;1.20;0.30;;;16.90;64.70;;;;;;4937472;29;20080;-51
2020/12/24 10:14:55;;;;;;;0.52;0.30;;;17.00;64.30;;;;;;4937345;29;20028;-51
2020/12/24 10:17:21;;;;;;;1.55;0.40;;;17.20;64.00;;;;;;4939289;28;20141;-47
2020/12/24 10:19:47;;;;;;;2.28;0.40;;;17.30;63.70;;;;;;4937351;29;20028;-48
2020/12/24 10:22:14;;;;;;;1.40;0.40;;;17.50;63.60;;;;;;4937545;29;20019;-50
2020/12/24 10:24:41;;;;;;;6.40;0.77;;;17.40;63.20;;;;;;4937308;29;20090;-53
2020/12/24 10:27:11;;;;;;;3.38;0.73;;;17.40;61.90;;;;;;4920633;29;20088;-53
2020/12/24 10:29:37;;;;;;;4.72;0.68;;;17.40;61.40;;;;;;4936220;29;20124;-50
2020/12/24 10:32:02;;;;;;;5.20;0.45;;;17.40;61.40;;;;;;4920244;29;20024;-52
2020/12/24 10:34:28;;;;;;;5.75;0.95;;;17.40;61.60;;;;;;4935900;29;20051;-51
2020/12/24 10:36:55;;;;;;;2.67;0.68;;;17.50;61.70;;;;;;4935985;29;20102;-53
2020/12/24 10:39:21;;;;;;;3.72;0.50;;;17.50;61.60;;;;;;4936486;29;20042;-53
2020/12/24 10:41:50;;;;;;;3.42;0.70;;;17.60;62.50;;;;;;4937526;29;20028;-50
2020/12/24 10:44:17;;;;;;;3.85;0.60;;;17.70;62.00;;;;;;4937606;29;20521;-51
2020/12/24 10:46:42;;;;;;;15.10;0.80;;;17.70;61.90;;;;;;4937869;29;20067;-51
2020/12/24 10:49:08;;;;;;;6.47;0.70;;;17.80;61.70;;;;;;4937367;29;20047;-54
2020/12/24 10:51:34;;;;;;;7.68;0.70;;;17.90;61.60;;;;;;4937597;29;20060;-51
2020/12/24 10:53:59;;;;;;;6.93;0.95;;;18.00;61.60;;;;;;4937381;29;20031;-52
2020/12/24 10:56:25;;;;;;;5.45;0.60;;;18.00;62.10;;;;;;4937408;29;20038;-54
2020/12/24 10:58:50;;;;;;;5.50;0.65;;;18.00;62.60;;;;;;4937360;29;20127;-54
2020/12/24 11:01:19;;;;;;;3.72;0.50;;;18.10;63.00;;;;;;4937672;29;20035;-51
2020/12/24 11:03:45;;;;;;;1.63;0.68;;;18.00;63.40;;;;;;4920330;29;20015;-50
2020/12/24 11:06:19;;;;;;;3.85;0.73;;;18.20;64.70;;;;;;4935501;29;20110;-52
2020/12/24 11:08:45;;;;;;;6.68;0.80;;;18.10;65.20;;;;;;4936901;29;20427;-50
2020/12/24 11:11:12;;;;;;;4.32;0.75;;;18.30;65.40;;;;;;4918915;29;20055;-53
2020/12/24 11:13:38;;;;;;;4.35;0.60;;;18.30;65.50;;;;;;4919946;29;20114;-54
2020/12/24 11:16:04;;;;;;;3.22;0.80;;;18.30;66.00;;;;;;4938583;28;20020;-52
2020/12/24 11:18:30;;;;;;;2.03;0.50;;;18.30;67.00;;;;;;4936947;29;20054;-53
2020/12/24 11:20:56;;;;;;;2.42;0.88;;;18.20;67.20;;;;;;4937098;29;20067;-54
2020/12/24 11:23:22;;;;;;;2.45;0.70;;;18.20;67.20;;;;;;4936774;29;20058;-54
2020/12/24 11:25:48;;;;;;;0.93;0.50;;;18.30;67.90;;;;;;4936847;29;20028;-51
2020/12/24 11:28:13;;;;;;;1.95;0.75;;;18.30;68.10;;;;;;4936507;29;20051;-52
2020/12/24 11:30:40;;;;;;;6.15;0.90;;;18.30;68.40;;;;;;4919698;29;20103;-50
2020/12/24 11:33:05;;;;;;;2.83;0.52;;;18.20;68.60;;;;;;4936741;29;20027;-52
2020/12/24 11:35:31;;;;;;;3.13;0.65;;;18.20;68.70;;;;;;4936946;29;20035;-54
2020/12/24 11:37:56;;;;;;;2.55;0.60;;;18.20;69.10;;;;;;4936313;29;20386;-52
2020/12/24 11:40:22;;;;;;;3.17;0.65;;;18.20;69.40;;;;;;4936432;29;20421;-50
2020/12/24 11:42:47;;;;;;;3.58;0.90;;;18.20;69.60;;;;;;4936541;29;20108;-51
2020/12/24 11:45:19;;;;;;;1.65;0.43;;;18.20;69.30;;;;;;4936469;29;20530;-53
2020/12/24 11:47:45;;;;;;;3.75;0.90;;;18.10;69.60;;;;;;4934876;29;20028;-50
2020/12/24 11:50:10;;;;;;;3.63;0.77;;;18.20;69.90;;;;;;4936238;29;20126;-49
2020/12/24 11:52:37;;;;;;;2.13;0.60;;;18.30;69.30;;;;;;4936172;29;20051;-51
2020/12/24 11:55:06;;;;;;;3.78;0.70;;;18.30;70.30;;;;;;4936269;29;20110;-51
2020/12/24 11:57:32;;;;;;;5.80;0.80;;;18.30;70.20;;;;;;4936090;29;20434;-50
2020/12/24 11:59:58;;;;;;;2.00;0.80;;;18.40;70.70;;;;;;4935858;29;20036;-50
2020/12/24 12:02:24;;;;;;;7.10;0.88;;;18.40;70.60;;;;;;4936091;29;20031;-51
2020/12/24 12:04:50;;;;;;;8.45;0.80;;;18.40;70.80;;;;;;4919171;29;20027;-53
2020/12/24 12:07:15;;;;;;;8.35;1.05;;;18.40;71.10;;;;;;4935904;29;20031;-50
2020/12/24 12:09:41;;;;;;;3.42;0.90;;;18.40;71.20;;;;;;4936044;29;20416;-50
2020/12/24 12:12:07;;;;;;;6.53;0.98;;;18.50;71.30;;;;;;4936019;29;20031;-51
2020/12/24 12:14:32;;;;;;;15.07;1.15;;;18.50;71.30;;;;;;4935719;29;20051;-50
2020/12/24 12:16:58;;;;;;;3.75;1.10;;;18.50;71.90;;;;;;4937276;28;20079;-50
2020/12/24 12:19:23;;;;;;;3.60;0.80;;;18.50;71.60;;;;;;4918640;29;20062;-53
2020/12/24 12:21:49;;;;;;;5.57;1.10;;;18.50;71.70;;;;;;4935567;29;20636;-48
2020/12/24 12:24:15;;;;;;;5.28;0.73;;;18.50;71.60;;;;;;4935920;29;20099;-51
2020/12/24 12:26:43;;;;;;;4.05;0.88;;;18.50;72.00;;;;;;4935678;29;20079;-48
2020/12/24 12:29:09;;;;;;;9.10;1.90;;;18.40;72.20;;;;;;4935762;29;20471;-52
2020/12/24 12:31:35;;;;;;;3.30;0.82;;;18.50;72.50;;;;;;4936074;29;20039;-49
2020/12/24 12:34:01;;;;;;;5.28;0.95;;;18.50;72.30;;;;;;4935933;29;20028;-53
2020/12/24 12:36:27;;;;;;;5.97;1.00;;;18.40;72.40;;;;;;4935419;29;20028;-49
2020/12/24 12:38:52;;;;;;;6.40;1.05;;;18.50;72.70;;;;;;4935466;29;20032;-50
2020/12/24 12:41:19;;;;;;;7.20;1.13;;;18.50;72.80;;;;;;4935625;29;20031;-50
2020/12/24 12:43:46;;;;;;;6.18;0.80;;;18.50;72.40;;;;;;4935560;29;20493;-49
2020/12/24 12:46:21;;;;;;;4.30;0.43;;;18.50;72.40;;;;;;4935485;29;20063;-50
2020/12/24 12:48:47;;;;;;;2.95;0.80;;;18.50;72.90;;;;;;4935849;29;20020;-50
2020/12/24 12:51:13;;;;;;;3.78;0.90;;;18.50;73.00;;;;;;4935550;29;20030;-48